Canakkale Air Base, Turkey

3:04 PM EEST on September 02, 2014 (GMT +0300)
Canakkale Air Base | Change Station
CLOSE
Current Station
Airport
Location: Canakkale,
Elevation: 10 ft
Nearby Weather Stations

Elev 10 ft 40.14 °N, 26.42 °E | Updated 14 minutes ago

Partly Cloudy
Partly Cloudy
84 °F
Feels Like 88 °F
N
12
Wind Variable Wind from NNE

Today
High -- | Low -- °F
--% Chance of Precip.
Yesterday
High -- | Low -- °F
Precip. -- in
6:42 AM 7:44 PM
Waxing Crescent, 51% visible
Pressure 29.71 in
Visibility 6.2 miles
Clouds Few 3500 ft
Heat Index 88 °F
Dew Point 70 °F
Humidity 62%
Rainfall 0.00 in
Snow Depth Not available.
UV 7 out of 12
Pollen Not available.
Air Quality Not available.
Flu Activity Not available.
METAR LTBH 021150Z 03010KT 9999 FEW035 29/21 Q1006

More Conditions Fewer Conditions

Pressure 29.71 in
Visibility 6.2 miles
Clouds Few 3500 ft
Heat Index 88 °F
Dew Point 70 °F
Humidity 62%
Rainfall 0.00 in
Snow Depth Not available.
UV 7 out of 12
Pollen Not available.
Air Quality Not available.
Flu Activity Not available.
METAR LTBH 021150Z 03010KT 9999 FEW035 29/21 Q1006

More Conditions Fewer Conditions

10-Day Weather Forecast

Almanac

Astronomy

Sep. 02, 2014 Rise Set
Actual Time 6:42 AM EEST 7:44 PM EEST
Civil Twilight 6:14 AM EEST 8:12 PM EEST
Nautical Twilight 5:41 AM EEST 8:45 PM EEST
Astronomical Twilight 5:07 AM EEST 9:19 PM EEST
Moon 2:08 PM EEST No Moon Set
Length of Visible Light 13h 57m
Length of Day
13h 02m
Tomorrow will be 2m 33s shorter.
Waxing Crescent, 51% of the Moon is Illuminated
Today
Waxing Crescent
Sep 8
Full
Sep 15
Last Quarter
Sep 24
New
Oct 1
First Quarter

Yesterday's Extremes

Country Highs Country Lows

Community

WunderPhotos

Upload Photos

1,749,622 photos uploaded!

WunderBlogs® & News

By Dr. Jeff Masters
Director of Meteorology, Weather Underground
By Kari Strenfel
Meteorologist, Weather Underground
By Christopher C. Burt
Weather Historian, Weather Underground
September 2, 2014
September 2, 2014
September 2, 2014

Nearby

Snow Depth

Not available.

Earthquake Activity

City Distance Mag. Time & Date
No recent earthquake activity has been reported nearby.
Minimum magnitude displayed is 2.5.

Coastal Water Temperatures

Place Temperature
No Stations Reporting

Nearby Weather Stations